Time;durP1;ratioP1;P1;durP2;ratioP2;P2;SDS_P1;SDS_P2;PMS_P1;PMS_P2;Temp;Humidity;BMP_temperature;BMP_pressure;BME280_temperature;BME280_humidity;BME280_pressure;Samples;Min_cycle;Max_cycle;Signal;HPM_P1;HPM_P2
2022/04/05 00:02:11;;;;;;;12.27;9.20;;;6.00;54.50;;;;;;5091337;28;20024;-60
2022/04/05 00:04:37;;;;;;;11.68;10.27;;;6.00;54.50;;;;;;5078998;28;20366;-59
2022/04/05 00:07:03;;;;;;;12.85;10.30;;;6.00;54.60;;;;;;5084602;28;20028;-60
2022/04/05 00:09:29;;;;;;;12.73;10.65;;;6.00;54.80;;;;;;5087175;28;20113;-59
2022/04/05 00:11:54;;;;;;;12.70;10.27;;;6.10;54.80;;;;;;5079255;28;20028;-59
2022/04/05 00:14:20;;;;;;;13.10;11.20;;;6.00;54.80;;;;;;5092175;28;20032;-59
2022/04/05 00:16:45;;;;;;;14.25;10.60;;;6.00;55.50;;;;;;5081936;28;20433;-59
2022/04/05 00:19:11;;;;;;;13.00;11.18;;;6.00;54.90;;;;;;5081391;28;20535;-59
2022/04/05 00:21:37;;;;;;;14.70;11.95;;;6.00;55.10;;;;;;5073464;28;20362;-59
2022/04/05 00:24:03;;;;;;;14.30;11.20;;;6.00;55.20;;;;;;5084277;28;20020;-59
2022/04/05 00:26:28;;;;;;;15.63;11.75;;;6.00;55.40;;;;;;5077525;28;20020;-59
2022/04/05 00:28:54;;;;;;;13.75;11.48;;;6.00;55.50;;;;;;5093346;28;20039;-59
2022/04/05 00:31:20;;;;;;;13.60;10.93;;;6.00;55.50;;;;;;5093856;28;20035;-58
2022/04/05 00:33:45;;;;;;;11.57;10.38;;;6.00;55.60;;;;;;5093050;28;20128;-59
2022/04/05 00:36:11;;;;;;;12.57;9.90;;;6.00;55.60;;;;;;5094766;28;20036;-60
2022/04/05 00:38:37;;;;;;;11.65;9.52;;;6.00;55.60;;;;;;5084376;28;20051;-60
2022/04/05 00:41:02;;;;;;;10.60;9.25;;;6.00;55.70;;;;;;5094330;28;20048;-59
2022/04/05 00:43:28;;;;;;;10.82;9.52;;;6.00;55.80;;;;;;5094353;28;20020;-59
2022/04/05 00:45:56;;;;;;;13.02;9.52;;;6.00;55.70;;;;;;5077412;28;20029;-58
2022/04/05 00:48:57;;;;;;;11.02;9.68;;;6.00;55.70;;;;;;5073322;28;20052;-60
2022/04/05 00:51:24;;;;;;;12.88;10.00;;;6.00;55.70;;;;;;5094556;28;20549;-59
2022/04/05 00:54:04;;;;;;;10.23;9.13;;;6.00;55.70;;;;;;5088846;28;20507;-59
2022/04/05 00:56:34;;;;;;;9.50;8.52;;;5.90;55.80;;;;;;5069610;28;20416;-59
2022/04/05 00:59:01;;;;;;;9.98;8.18;;;5.90;55.90;;;;;;5094192;28;20466;-59
2022/04/05 01:01:27;;;;;;;10.05;8.55;;;5.90;56.00;;;;;;5094344;28;20097;-59
2022/04/05 01:03:53;;;;;;;9.88;8.88;;;5.80;56.00;;;;;;5094198;28;20012;-59
2022/04/05 01:06:40;;;;;;;9.57;7.88;;;5.80;56.10;;;;;;5093989;28;20024;-59
2022/04/05 01:09:09;;;;;;;9.63;8.55;;;5.70;56.20;;;;;;5083306;28;20024;-59
2022/04/05 01:11:35;;;;;;;9.77;8.82;;;5.70;56.30;;;;;;5089265;28;20084;-59
2022/04/05 01:14:01;;;;;;;10.52;8.85;;;5.60;56.40;;;;;;5072662;28;20024;-59
2022/04/05 01:16:27;;;;;;;12.68;9.95;;;5.60;56.50;;;;;;5079398;28;20027;-59
2022/04/05 01:18:52;;;;;;;11.60;10.13;;;5.50;56.70;;;;;;5077961;28;20028;-59
2022/04/05 01:21:18;;;;;;;12.05;9.40;;;5.50;56.90;;;;;;5090414;28;20017;-60
2022/04/05 01:24:19;;;;;;;13.27;9.88;;;5.40;56.80;;;;;;5089202;28;20128;-60
2022/04/05 01:26:48;;;;;;;11.13;9.35;;;5.40;57.00;;;;;;5023679;28;20076;-59
2022/04/05 01:29:15;;;;;;;10.00;8.85;;;5.30;57.10;;;;;;5074268;28;20029;-59
2022/04/05 01:31:44;;;;;;;11.13;9.65;;;5.30;57.20;;;;;;5091981;28;20077;-59
2022/04/05 01:34:10;;;;;;;11.07;8.75;;;5.30;57.30;;;;;;5093400;28;20051;-59
2022/04/05 01:36:50;;;;;;;11.18;9.18;;;5.30;57.40;;;;;;5093388;28;20480;-59
2022/04/05 01:39:18;;;;;;;9.88;8.85;;;5.30;57.50;;;;;;5075515;28;20120;-59
2022/04/05 01:41:44;;;;;;;10.85;8.32;;;5.30;57.60;;;;;;5084705;28;20035;-59
2022/04/05 01:44:12;;;;;;;10.88;8.77;;;5.30;57.70;;;;;;5093620;28;20059;-59
2022/04/05 01:46:39;;;;;;;10.50;8.02;;;5.20;57.80;;;;;;5077733;28;20115;-59
2022/04/05 01:49:13;;;;;;;8.90;8.00;;;5.20;57.80;;;;;;5093304;28;20380;-59
2022/04/05 01:51:39;;;;;;;9.60;8.48;;;5.20;57.90;;;;;;5093720;28;20020;-59
2022/04/05 01:54:07;;;;;;;9.68;8.73;;;5.10;58.00;;;;;;5093161;28;20034;-59
2022/04/05 01:56:49;;;;;;;10.93;9.00;;;5.10;58.20;;;;;;5093081;28;20110;-59
2022/04/05 01:59:20;;;;;;;10.30;9.07;;;5.00;58.90;;;;;;5093122;28;20031;-59
2022/04/05 02:01:47;;;;;;;8.48;7.68;;;5.00;58.50;;;;;;5093103;28;20024;-59
2022/04/05 02:04:13;;;;;;;9.38;8.18;;;5.00;58.60;;;;;;5071323;28;20040;-59
2022/04/05 02:06:39;;;;;;;11.10;8.23;;;5.00;58.70;;;;;;5088484;28;20038;-59
2022/04/05 02:09:05;;;;;;;10.38;8.90;;;5.00;58.70;;;;;;5078681;28;20381;-59
2022/04/05 02:11:32;;;;;;;11.65;10.40;;;5.00;58.90;;;;;;5058435;28;20036;-59
2022/04/05 02:13:57;;;;;;;10.95;9.73;;;5.00;58.90;;;;;;5092874;28;20047;-59
2022/04/05 02:16:23;;;;;;;11.48;10.25;;;4.90;58.90;;;;;;5081311;28;20028;-58
2022/04/05 02:18:48;;;;;;;11.35;10.15;;;4.90;59.00;;;;;;5073582;28;20024;-59
2022/04/05 02:21:14;;;;;;;12.05;10.48;;;4.90;59.10;;;;;;5080283;28;20480;-59
2022/04/05 02:23:40;;;;;;;12.43;10.65;;;4.80;59.20;;;;;;5079918;28;20032;-59
2022/04/05 02:26:05;;;;;;;10.77;9.68;;;4.80;59.30;;;;;;5065821;28;20020;-59
2022/04/05 02:28:31;;;;;;;10.90;9.55;;;4.80;59.30;;;;;;5089884;28;20028;-58
2022/04/05 02:30:56;;;;;;;10.48;9.43;;;4.80;59.40;;;;;;5091777;28;20388;-59
2022/04/05 02:33:22;;;;;;;10.38;8.98;;;4.80;59.50;;;;;;5091442;28;20035;-59
2022/04/05 02:35:48;;;;;;;9.88;8.88;;;4.80;59.50;;;;;;5092649;28;20312;-59
2022/04/05 02:38:14;;;;;;;10.32;9.32;;;4.80;59.60;;;;;;5078277;28;20090;-59
2022/04/05 02:40:40;;;;;;;11.27;10.13;;;4.80;59.70;;;;;;5073406;28;20412;-59
2022/04/05 02:43:06;;;;;;;10.23;9.15;;;4.80;59.70;;;;;;5092226;28;20426;-59
2022/04/05 02:45:32;;;;;;;11.02;9.57;;;4.80;59.80;;;;;;5076535;28;20082;-59
2022/04/05 02:47:58;;;;;;;11.77;9.75;;;4.80;59.80;;;;;;5073773;28;20039;-59
2022/04/05 02:50:24;;;;;;;10.93;9.82;;;4.80;59.70;;;;;;5092058;28;20427;-59
2022/04/05 02:52:50;;;;;;;11.13;9.18;;;4.70;59.80;;;;;;5092112;28;20034;-58
2022/04/05 02:55:17;;;;;;;11.05;9.23;;;4.70;59.70;;;;;;5073760;28;20345;-59
2022/04/05 02:57:45;;;;;;;10.52;9.45;;;4.70;59.80;;;;;;5091440;28;20054;-59
2022/04/05 03:00:12;;;;;;;10.77;9.68;;;4.70;59.90;;;;;;5090775;28;20040;-59
2022/04/05 03:02:39;;;;;;;11.15;9.93;;;4.80;59.80;;;;;;5091264;28;20380;-60
2022/04/05 03:05:06;;;;;;;12.93;10.82;;;4.80;59.70;;;;;;5091744;28;20020;-59
2022/04/05 03:07:34;;;;;;;11.65;10.43;;;4.80;59.70;;;;;;5092184;28;20028;-59
2022/04/05 03:09:59;;;;;;;12.15;10.57;;;4.80;59.80;;;;;;5072070;28;20028;-59
2022/04/05 03:12:25;;;;;;;13.05;11.60;;;4.90;59.80;;;;;;5070334;28;20482;-59
2022/04/05 03:14:51;;;;;;;13.43;10.32;;;4.90;59.60;;;;;;5091575;28;20028;-59
2022/04/05 03:17:17;;;;;;;13.18;11.10;;;5.00;59.40;;;;;;5071501;28;20031;-59
2022/04/05 03:19:42;;;;;;;12.13;10.82;;;5.00;59.30;;;;;;5079257;28;20035;-59
2022/04/05 03:22:11;;;;;;;14.57;12.43;;;5.00;59.20;;;;;;5087509;28;20027;-57
2022/04/05 03:24:37;;;;;;;17.23;12.70;;;5.00;59.10;;;;;;5092094;28;20560;-59
2022/04/05 03:27:03;;;;;;;17.83;13.63;;;5.00;58.90;;;;;;5076776;28;20025;-59
2022/04/05 03:29:29;;;;;;;17.00;13.70;;;5.10;59.00;;;;;;5074766;28;20024;-59
2022/04/05 03:31:55;;;;;;;16.88;13.23;;;5.10;58.90;;;;;;5091644;28;20024;-59
2022/04/05 03:34:21;;;;;;;19.67;13.85;;;5.10;58.90;;;;;;5091731;28;20434;-59
2022/04/05 03:36:46;;;;;;;16.17;12.90;;;5.20;58.90;;;;;;5091240;28;20083;-59
2022/04/05 03:39:14;;;;;;;15.65;12.63;;;5.20;58.70;;;;;;5076958;28;20053;-59
2022/04/05 03:41:41;;;;;;;15.13;12.57;;;5.20;58.60;;;;;;5078515;28;20414;-59
2022/04/05 03:44:07;;;;;;;13.73;12.23;;;5.30;58.50;;;;;;5090260;28;20115;-59
2022/04/05 03:46:33;;;;;;;14.65;11.80;;;5.30;58.60;;;;;;5058196;28;20053;-59
2022/04/05 03:48:59;;;;;;;13.07;11.18;;;5.30;58.60;;;;;;5068555;28;20028;-59
2022/04/05 03:51:25;;;;;;;15.32;11.80;;;5.40;58.60;;;;;;5095863;28;20028;-60
2022/04/05 03:53:51;;;;;;;13.60;10.85;;;5.50;58.60;;;;;;5095388;28;20118;-59
2022/04/05 03:56:16;;;;;;;11.48;10.27;;;5.50;58.40;;;;;;5095335;28;20039;-59
2022/04/05 03:58:42;;;;;;;11.60;9.98;;;5.60;58.40;;;;;;5095530;28;20031;-59
2022/04/05 04:01:08;;;;;;;11.40;10.20;;;5.60;58.30;;;;;;5095202;28;20568;-58
2022/04/05 04:03:34;;;;;;;12.25;10.07;;;5.70;58.30;;;;;;5076522;28;20475;-59
2022/04/05 04:05:59;;;;;;;12.70;10.38;;;5.70;58.20;;;;;;5095097;28;20028;-59
2022/04/05 04:08:26;;;;;;;11.30;10.10;;;5.70;58.30;;;;;;5094145;28;20031;-58
2022/04/05 04:10:52;;;;;;;11.52;10.02;;;5.80;58.10;;;;;;5080849;28;20031;-59
2022/04/05 04:13:18;;;;;;;12.57;9.85;;;5.80;58.10;;;;;;5095185;28;20028;-59
2022/04/05 04:15:44;;;;;;;12.25;10.45;;;5.80;58.10;;;;;;5077301;28;20104;-59
2022/04/05 04:18:09;;;;;;;12.82;11.10;;;5.90;58.10;;;;;;5089238;28;20119;-59
2022/04/05 04:20:35;;;;;;;14.35;12.60;;;5.80;58.70;;;;;;5080393;28;20034;-59
2022/04/05 04:23:01;;;;;;;13.73;11.20;;;5.80;58.20;;;;;;5085790;28;20025;-59
2022/04/05 04:25:27;;;;;;;14.38;12.52;;;5.90;58.30;;;;;;5082830;28;20019;-59
2022/04/05 04:27:52;;;;;;;16.48;13.18;;;5.90;58.30;;;;;;5079195;28;20024;-59
2022/04/05 04:30:18;;;;;;;19.38;14.02;;;5.90;58.40;;;;;;5083260;28;20477;-59
2022/04/05 04:32:43;;;;;;;18.50;13.93;;;6.00;58.40;;;;;;5069605;28;20040;-59
2022/04/05 04:35:09;;;;;;;16.52;13.18;;;6.00;58.30;;;;;;5065191;28;20425;-59
2022/04/05 04:37:36;;;;;;;17.17;13.52;;;6.10;58.30;;;;;;5063929;28;20135;-59
2022/04/05 04:40:02;;;;;;;19.58;14.82;;;6.20;58.30;;;;;;5070619;28;20072;-59
2022/04/05 04:42:28;;;;;;;16.75;13.80;;;6.30;58.40;;;;;;5073174;28;20036;-60
2022/04/05 04:44:53;;;;;;;16.20;12.75;;;6.40;58.40;;;;;;5071897;28;20477;-60
2022/04/05 04:47:19;;;;;;;14.93;12.77;;;6.60;58.20;;;;;;5078006;28;20433;-60
2022/04/05 04:49:45;;;;;;;16.50;12.57;;;6.80;58.00;;;;;;5072976;28;20111;-60
2022/04/05 04:52:11;;;;;;;15.38;12.18;;;7.10;57.70;;;;;;5075317;28;20056;-59
2022/04/05 04:54:36;;;;;;;14.18;11.88;;;7.50;57.20;;;;;;5062274;28;20366;-59
2022/04/05 04:57:03;;;;;;;14.57;12.45;;;7.90;56.70;;;;;;5058832;28;20033;-60
2022/04/05 04:59:28;;;;;;;14.80;12.50;;;8.30;56.10;;;;;;5085757;28;20028;-60
2022/04/05 05:01:54;;;;;;;14.48;11.73;;;8.60;55.50;;;;;;5081581;28;20036;-61
2022/04/05 05:04:20;;;;;;;14.73;12.00;;;8.90;55.20;;;;;;5068866;28;20029;-60
2022/04/05 05:06:45;;;;;;;13.60;11.73;;;9.20;54.60;;;;;;5065592;28;20032;-62
2022/04/05 05:09:11;;;;;;;16.27;12.23;;;9.50;54.10;;;;;;5063708;28;20017;-59
2022/04/05 05:11:37;;;;;;;14.73;11.93;;;9.70;53.60;;;;;;5080613;28;20480;-60
2022/04/05 05:14:03;;;;;;;15.25;12.07;;;9.90;53.30;;;;;;5073500;28;20078;-60
2022/04/05 05:16:29;;;;;;;19.58;13.32;;;10.10;53.00;;;;;;5055843;28;20104;-60
2022/04/05 05:18:54;;;;;;;18.60;11.45;;;10.20;52.70;;;;;;5068709;28;20528;-60
2022/04/05 05:21:20;;;;;;;15.55;11.55;;;10.50;52.60;;;;;;5077520;28;20036;-60
2022/04/05 05:23:46;;;;;;;11.75;10.32;;;10.80;52.10;;;;;;5064430;28;20025;-60
2022/04/05 05:26:13;;;;;;;10.32;9.23;;;11.10;51.50;;;;;;5062911;28;20033;-61
2022/04/05 05:28:38;;;;;;;11.98;9.95;;;11.40;50.90;;;;;;5060960;28;20473;-61
2022/04/05 05:31:04;;;;;;;14.95;10.73;;;11.60;50.50;;;;;;5061201;28;20032;-62
2022/04/05 05:33:31;;;;;;;15.38;10.60;;;11.70;49.80;;;;;;5059946;28;20119;-62
2022/04/05 05:35:58;;;;;;;16.42;10.88;;;11.60;49.60;;;;;;5062033;28;20134;-61
2022/04/05 05:38:24;;;;;;;18.60;12.48;;;11.60;49.80;;;;;;5058589;28;20570;-59
2022/04/05 05:40:50;;;;;;;23.52;12.45;;;11.60;49.70;;;;;;5069720;28;20083;-59
2022/04/05 05:43:15;;;;;;;22.33;12.70;;;11.70;49.70;;;;;;5064496;28;20031;-58
2022/04/05 05:45:41;;;;;;;19.77;12.80;;;11.80;49.30;;;;;;5054193;28;20082;-59
2022/04/05 05:48:08;;;;;;;20.02;11.43;;;11.90;49.10;;;;;;5068474;28;20103;-59
2022/04/05 05:50:35;;;;;;;12.70;9.73;;;12.00;48.90;;;;;;5066486;28;20021;-59
2022/04/05 05:53:02;;;;;;;14.82;9.45;;;12.10;48.70;;;;;;5059003;28;20391;-59
2022/04/05 05:55:28;;;;;;;18.38;12.52;;;12.10;48.50;;;;;;5060178;28;20033;-59
2022/04/05 05:57:54;;;;;;;12.95;9.35;;;12.10;48.70;;;;;;5059268;28;20024;-59
2022/04/05 06:00:21;;;;;;;13.60;9.05;;;12.10;48.80;;;;;;5054754;28;20032;-59
2022/04/05 06:02:49;;;;;;;14.75;9.95;;;12.00;48.70;;;;;;5059402;28;20036;-59
2022/04/05 06:05:15;;;;;;;11.15;8.68;;;11.90;49.00;;;;;;5054517;28;20389;-59
2022/04/05 06:07:41;;;;;;;10.60;7.93;;;11.90;49.20;;;;;;5061634;28;20020;-59
2022/04/05 06:10:09;;;;;;;9.30;7.88;;;11.70;49.60;;;;;;5062145;28;20481;-59
2022/04/05 06:12:43;;;;;;;12.70;8.77;;;11.60;49.90;;;;;;5063802;28;20025;-59
2022/04/05 06:15:11;;;;;;;12.50;9.48;;;11.50;50.30;;;;;;5068526;28;20020;-59
2022/04/05 06:17:38;;;;;;;9.32;8.27;;;11.40;50.90;;;;;;5052287;28;20035;-59
2022/04/05 06:20:05;;;;;;;9.50;7.95;;;11.30;51.30;;;;;;5058747;28;20020;-60
2022/04/05 06:22:31;;;;;;;10.70;7.97;;;11.30;51.60;;;;;;5056189;28;20089;-60
2022/04/05 06:24:56;;;;;;;10.35;7.80;;;11.30;51.80;;;;;;5053898;28;20062;-60
2022/04/05 06:27:23;;;;;;;10.30;8.40;;;11.20;52.20;;;;;;5056619;28;20028;-60
2022/04/05 06:29:49;;;;;;;10.55;8.27;;;11.10;52.80;;;;;;5057083;28;20155;-59
2022/04/05 06:32:16;;;;;;;9.50;7.72;;;11.10;53.00;;;;;;5058766;28;20120;-60
2022/04/05 06:34:41;;;;;;;10.65;8.48;;;11.00;53.00;;;;;;5053529;28;20086;-60
2022/04/05 06:37:07;;;;;;;10.20;8.27;;;10.80;53.10;;;;;;5061786;28;20021;-59
2022/04/05 06:39:33;;;;;;;9.43;8.43;;;10.70;53.60;;;;;;5054522;28;20520;-59
2022/04/05 06:41:59;;;;;;;10.63;7.88;;;10.60;53.80;;;;;;5057807;28;20045;-59
2022/04/05 06:44:24;;;;;;;9.30;8.38;;;10.60;54.00;;;;;;5058278;28;20024;-60
2022/04/05 06:46:50;;;;;;;9.90;8.88;;;10.50;54.30;;;;;;5060158;28;20025;-60
2022/04/05 06:49:15;;;;;;;9.20;8.20;;;10.50;54.70;;;;;;5053772;28;20621;-60
2022/04/05 06:51:41;;;;;;;10.63;8.80;;;10.50;55.10;;;;;;5053596;28;20025;-60
2022/04/05 06:54:07;;;;;;;10.15;7.95;;;10.40;55.00;;;;;;5054589;28;20036;-60
2022/04/05 06:56:33;;;;;;;12.30;8.95;;;10.40;55.10;;;;;;5056616;28;20102;-60
2022/04/05 06:58:58;;;;;;;10.88;9.25;;;10.40;55.40;;;;;;5051426;28;20746;-59
2022/04/05 07:01:24;;;;;;;11.68;9.18;;;10.40;55.70;;;;;;5049809;28;20032;-59
2022/04/05 07:03:50;;;;;;;12.02;8.95;;;10.40;55.90;;;;;;5046078;28;20415;-59
2022/04/05 07:06:17;;;;;;;10.77;8.55;;;10.40;55.90;;;;;;5045645;28;20024;-59
2022/04/05 07:08:49;;;;;;;9.43;8.52;;;10.40;55.90;;;;;;5045449;28;20029;-59
2022/04/05 07:11:15;;;;;;;8.68;7.88;;;10.40;56.10;;;;;;5049341;28;20396;-59
2022/04/05 07:13:41;;;;;;;9.70;8.70;;;10.30;56.30;;;;;;5051481;28;20052;-59
2022/04/05 07:16:08;;;;;;;10.15;9.15;;;10.30;56.50;;;;;;5051823;28;20029;-59
2022/04/05 07:18:36;;;;;;;10.40;8.70;;;10.30;56.50;;;;;;5056928;28;20036;-59
2022/04/05 07:21:03;;;;;;;10.00;9.00;;;10.30;56.80;;;;;;5046328;28;20025;-59
2022/04/05 07:23:32;;;;;;;11.15;9.50;;;10.30;56.90;;;;;;5049438;28;20565;-59
2022/04/05 07:25:57;;;;;;;9.77;8.77;;;10.30;57.00;;;;;;5085494;27;20024;-59
2022/04/05 07:28:23;;;;;;;11.68;9.27;;;10.30;57.10;;;;;;5055167;28;20742;-59
2022/04/05 07:30:49;;;;;;;9.80;8.77;;;10.30;57.10;;;;;;5057104;28;20067;-59
2022/04/05 07:33:18;;;;;;;10.50;9.38;;;10.40;57.10;;;;;;5050588;28;20028;-59
2022/04/05 07:35:44;;;;;;;10.98;9.88;;;10.30;57.10;;;;;;5057491;28;20139;-59
2022/04/05 07:38:09;;;;;;;10.85;9.65;;;10.30;57.10;;;;;;5060135;28;20469;-58
2022/04/05 07:40:52;;;;;;;10.40;9.25;;;10.30;57.20;;;;;;5055117;28;20879;-59
2022/04/05 07:43:24;;;;;;;10.00;9.00;;;10.30;57.10;;;;;;5054885;28;20373;-59
2022/04/05 07:45:51;;;;;;;11.18;9.15;;;10.40;57.30;;;;;;5052302;28;20039;-59
2022/04/05 07:48:19;;;;;;;11.13;9.80;;;10.40;57.70;;;;;;5052089;28;21030;-58
2022/04/05 07:50:45;;;;;;;10.88;8.80;;;10.40;57.70;;;;;;5054520;28;20051;-61
2022/04/05 07:53:11;;;;;;;10.20;9.18;;;10.50;57.60;;;;;;5055420;28;20064;-59
2022/04/05 07:55:36;;;;;;;11.07;9.70;;;10.50;57.40;;;;;;5041171;28;20119;-59
2022/04/05 07:58:02;;;;;;;12.13;10.20;;;10.50;57.30;;;;;;5049150;28;20032;-59
2022/04/05 08:00:28;;;;;;;11.40;10.20;;;10.60;57.30;;;;;;5052092;28;20424;-59
2022/04/05 08:02:54;;;;;;;11.90;9.43;;;10.70;57.00;;;;;;5055541;28;20029;-61
2022/04/05 08:05:20;;;;;;;12.00;10.48;;;10.80;56.50;;;;;;5049391;28;20135;-60
2022/04/05 08:07:46;;;;;;;19.13;10.48;;;10.80;56.40;;;;;;5044968;28;20029;-62
2022/04/05 08:10:13;;;;;;;10.23;9.23;;;10.80;55.70;;;;;;5045130;28;20039;-61
2022/04/05 08:12:47;;;;;;;10.07;9.05;;;10.80;55.40;;;;;;5051193;28;20073;-60
2022/04/05 08:15:16;;;;;;;11.73;10.15;;;10.70;55.40;;;;;;5048340;28;20032;-61
2022/04/05 08:17:41;;;;;;;12.82;10.25;;;10.70;55.80;;;;;;5056157;28;20464;-59
2022/04/05 08:20:08;;;;;;;13.00;10.75;;;10.80;55.60;;;;;;5053817;28;20032;-60
2022/04/05 08:22:34;;;;;;;12.38;10.57;;;10.90;55.70;;;;;;5050444;28;20090;-59
2022/04/05 08:25:00;;;;;;;10.50;9.40;;;11.00;55.40;;;;;;5049843;28;20036;-61
2022/04/05 08:27:26;;;;;;;10.35;9.02;;;11.10;54.50;;;;;;5054065;28;20655;-61
2022/04/05 08:29:51;;;;;;;11.73;8.95;;;11.10;53.90;;;;;;5056927;28;20036;-60
2022/04/05 08:32:17;;;;;;;11.13;9.48;;;11.20;53.50;;;;;;5050742;28;20599;-60
2022/04/05 08:34:45;;;;;;;10.50;8.55;;;11.30;53.20;;;;;;5052157;28;20484;-60
2022/04/05 08:37:12;;;;;;;8.80;7.95;;;11.30;53.00;;;;;;5049339;28;20115;-60
2022/04/05 08:39:38;;;;;;;9.85;8.30;;;11.30;52.70;;;;;;5044534;28;20071;-60
2022/04/05 08:42:05;;;;;;;8.18;7.05;;;11.30;52.60;;;;;;5049472;28;20033;-61
2022/04/05 08:44:33;;;;;;;9.30;7.43;;;11.40;51.90;;;;;;5048746;28;20107;-61
2022/04/05 08:47:03;;;;;;;8.57;7.65;;;11.40;51.00;;;;;;5055413;28;20020;-61
2022/04/05 08:49:31;;;;;;;9.25;6.80;;;11.40;50.50;;;;;;5048236;28;20090;-61
2022/04/05 08:51:57;;;;;;;10.18;7.75;;;11.40;50.30;;;;;;5041553;28;20047;-60
2022/04/05 08:54:22;;;;;;;9.63;7.90;;;11.30;49.90;;;;;;5048935;28;20032;-60
2022/04/05 08:56:50;;;;;;;9.35;7.60;;;11.30;49.80;;;;;;5045728;28;20028;-59
2022/04/05 08:59:16;;;;;;;8.68;7.15;;;11.30;49.70;;;;;;5044316;28;20033;-58
2022/04/05 09:01:42;;;;;;;8.50;6.97;;;11.20;49.10;;;;;;5045297;28;20403;-59
2022/04/05 09:04:10;;;;;;;7.45;6.68;;;11.20;49.00;;;;;;5039927;28;20037;-59
2022/04/05 09:06:36;;;;;;;7.72;6.75;;;11.10;48.90;;;;;;5046730;28;20056;-59
2022/04/05 09:09:13;;;;;;;8.38;6.95;;;11.10;49.00;;;;;;5049269;28;20053;-58
2022/04/05 09:11:50;;;;;;;8.50;7.60;;;11.10;48.90;;;;;;5047290;28;20032;-59
2022/04/05 09:14:30;;;;;;;8.10;7.30;;;11.10;48.90;;;;;;5043990;28;20043;-59
2022/04/05 09:17:07;;;;;;;9.30;7.88;;;11.20;49.10;;;;;;5048912;28;20036;-57
2022/04/05 09:19:48;;;;;;;9.85;8.25;;;11.20;49.10;;;;;;5041805;28;21782;-58
2022/04/05 09:22:15;;;;;;;8.60;7.70;;;11.20;49.50;;;;;;5051666;28;20036;-61
2022/04/05 09:24:45;;;;;;;9.15;7.65;;;11.20;49.80;;;;;;5045773;28;20043;-58
2022/04/05 09:27:12;;;;;;;8.30;7.30;;;11.30;49.40;;;;;;5046452;28;20032;-58
2022/04/05 09:29:50;;;;;;;8.45;6.63;;;11.30;49.10;;;;;;5051202;28;20024;-59
2022/04/05 09:32:37;;;;;;;8.77;7.20;;;11.40;47.90;;;;;;5047124;28;20043;-58
2022/04/05 09:35:04;;;;;;;8.98;7.18;;;11.40;47.70;;;;;;5046876;28;20111;-58
2022/04/05 09:37:29;;;;;;;7.40;6.63;;;11.40;47.70;;;;;;5047373;28;20083;-58
2022/04/05 09:40:15;;;;;;;7.57;6.63;;;11.40;47.70;;;;;;5043436;28;20440;-58
2022/04/05 09:43:00;;;;;;;8.40;7.45;;;11.40;47.60;;;;;;5045336;28;20020;-58
2022/04/05 09:45:46;;;;;;;7.72;6.93;;;11.40;47.60;;;;;;5047370;28;20033;-59
2022/04/05 09:48:12;;;;;;;7.88;7.07;;;11.50;47.60;;;;;;5047440;28;20032;-58
2022/04/05 09:51:03;;;;;;;7.70;6.93;;;11.50;47.60;;;;;;5046704;28;20056;-58
2022/04/05 09:53:30;;;;;;;11.98;7.60;;;11.50;47.00;;;;;;5051248;28;20043;-58
2022/04/05 09:56:07;;;;;;;7.93;6.45;;;11.50;46.90;;;;;;5046900;28;20037;-58
2022/04/05 09:58:34;;;;;;;8.75;6.53;;;11.50;46.70;;;;;;5049472;28;20045;-59
2022/04/05 10:01:11;;;;;;;8.95;7.07;;;11.60;46.70;;;;;;5057972;28;20051;-59
2022/04/05 10:03:39;;;;;;;10.57;7.22;;;11.70;46.30;;;;;;5055211;28;20032;-59
2022/04/05 10:06:05;;;;;;;8.73;7.55;;;11.70;46.20;;;;;;5049068;28;20066;-58
2022/04/05 10:08:33;;;;;;;8.30;7.28;;;11.80;45.80;;;;;;5049063;28;20082;-58
2022/04/05 10:10:59;;;;;;;8.00;6.90;;;11.90;45.50;;;;;;5051460;28;20074;-59
2022/04/05 10:13:26;;;;;;;7.72;6.93;;;12.00;45.30;;;;;;5049091;28;20024;-59
2022/04/05 10:15:52;;;;;;;7.45;6.32;;;12.10;45.30;;;;;;5047869;28;20085;-59
2022/04/05 10:18:21;;;;;;;6.78;6.07;;;12.20;45.30;;;;;;5050270;28;20029;-58
2022/04/05 10:20:51;;;;;;;7.82;6.47;;;12.20;44.90;;;;;;5052527;28;20036;-58
2022/04/05 10:23:22;;;;;;;7.60;6.47;;;12.30;44.90;;;;;;5059551;28;20106;-58
2022/04/05 10:25:51;;;;;;;6.60;5.88;;;12.30;44.70;;;;;;5054880;28;20106;-59
2022/04/05 10:28:19;;;;;;;7.38;6.32;;;12.40;44.60;;;;;;5052521;28;20037;-58
2022/04/05 10:30:55;;;;;;;7.88;6.35;;;12.40;44.60;;;;;;5048512;28;20036;-58
2022/04/05 10:34:02;;;;;;;10.82;6.25;;;12.50;44.30;;;;;;5052752;28;20033;-58
2022/04/05 10:36:27;;;;;;;7.38;6.15;;;12.50;44.20;;;;;;5007950;28;20083;-58
2022/04/05 10:39:13;;;;;;;7.63;6.45;;;12.50;44.20;;;;;;5045148;28;20044;-59
2022/04/05 10:41:39;;;;;;;6.88;5.45;;;12.50;44.10;;;;;;5056829;28;20827;-58
2022/04/05 10:44:36;;;;;;;8.00;6.10;;;12.50;44.20;;;;;;5052424;28;20385;-59
2022/04/05 10:47:06;;;;;;;7.05;6.20;;;12.50;44.20;;;;;;5068150;28;20039;-58
2022/04/05 10:49:47;;;;;;;6.35;5.72;;;12.60;44.10;;;;;;5051359;28;20039;-58
2022/04/05 10:52:28;;;;;;;8.15;6.43;;;12.60;43.90;;;;;;5056397;28;20039;-58
2022/04/05 10:55:04;;;;;;;7.05;6.00;;;12.60;43.50;;;;;;5058997;28;20039;-59
2022/04/05 10:57:35;;;;;;;7.50;6.03;;;12.60;43.50;;;;;;5052094;28;20047;-58
2022/04/05 11:00:21;;;;;;;8.10;6.00;;;12.60;43.40;;;;;;5045883;28;20039;-59
2022/04/05 11:03:11;;;;;;;7.50;5.63;;;12.60;43.50;;;;;;5033726;28;20488;-59
2022/04/05 11:05:42;;;;;;;6.95;6.25;;;12.60;43.30;;;;;;5035439;28;20503;-58
2022/04/05 11:08:11;;;;;;;8.55;6.32;;;12.60;43.40;;;;;;5044362;28;20031;-58
2022/04/05 11:10:37;;;;;;;8.10;6.60;;;12.60;43.40;;;;;;5047516;28;20060;-60
2022/04/05 11:13:08;;;;;;;7.80;6.15;;;12.60;43.40;;;;;;5039900;28;20156;-59
2022/04/05 11:15:46;;;;;;;7.00;6.30;;;12.60;43.20;;;;;;5041657;28;20516;-59
2022/04/05 11:18:13;;;;;;;8.02;6.70;;;12.70;43.30;;;;;;5047855;28;20111;-59
2022/04/05 11:20:41;;;;;;;7.97;5.90;;;12.70;43.20;;;;;;5043353;28;20032;-59
2022/04/05 11:23:08;;;;;;;6.13;5.53;;;12.70;43.00;;;;;;5043916;28;20037;-59
2022/04/05 11:25:34;;;;;;;7.47;5.70;;;12.70;42.80;;;;;;5038204;28;20036;-60
2022/04/05 11:28:18;;;;;;;7.10;6.15;;;12.70;42.80;;;;;;5035497;28;20587;-59
2022/04/05 11:30:52;;;;;;;6.88;5.93;;;12.70;42.60;;;;;;5042840;28;20104;-59
2022/04/05 11:33:34;;;;;;;6.75;5.22;;;12.70;42.60;;;;;;5047709;28;20035;-58
2022/04/05 11:36:01;;;;;;;9.88;7.45;;;12.70;42.50;;;;;;5044353;28;20032;-60
2022/04/05 11:38:33;;;;;;;9.32;6.25;;;12.70;42.60;;;;;;5041908;28;20147;-60
2022/04/05 11:41:03;;;;;;;;;;;12.80;42.60;;;;;;5034557;28;20051;-59
2022/04/05 11:43:32;;;;;;;7.95;5.85;;;12.70;42.30;;;;;;5040728;28;20641;-60
2022/04/05 11:46:03;;;;;;;8.07;6.32;;;12.70;42.70;;;;;;5046421;28;20025;-60
2022/04/05 11:48:29;;;;;;;7.00;6.30;;;12.70;42.80;;;;;;5042210;28;20056;-59
2022/04/05 11:50:59;;;;;;;6.88;5.88;;;12.70;43.00;;;;;;5042076;28;20688;-59
2022/04/05 11:53:25;;;;;;;9.20;6.53;;;12.70;43.00;;;;;;5032912;28;20040;-59
2022/04/05 11:56:11;;;;;;;8.35;6.57;;;12.70;42.90;;;;;;5044222;28;20061;-59
2022/04/05 11:58:40;;;;;;;7.55;6.22;;;12.60;43.30;;;;;;5042088;28;20033;-59
2022/04/05 12:01:08;;;;;;;6.65;6.00;;;12.70;43.70;;;;;;5040970;28;20044;-58
2022/04/05 12:04:09;;;;;;;10.35;6.50;;;12.70;43.80;;;;;;5047203;28;20166;-59
2022/04/05 12:06:38;;;;;;;8.40;6.53;;;12.70;44.20;;;;;;5040520;28;20044;-59
2022/04/05 12:09:12;;;;;;;6.80;5.93;;;12.80;44.20;;;;;;5046374;28;20270;-58
2022/04/05 12:11:41;;;;;;;7.63;6.07;;;12.80;44.00;;;;;;5048159;28;20386;-58
2022/04/05 12:14:12;;;;;;;8.25;6.18;;;12.90;43.80;;;;;;5052814;28;20029;-58
2022/04/05 12:16:58;;;;;;;8.02;6.35;;;12.90;43.70;;;;;;5050698;28;20099;-58
2022/04/05 12:19:30;;;;;;;9.55;6.22;;;12.80;43.60;;;;;;5054826;28;20028;-58
2022/04/05 12:21:57;;;;;;;7.18;5.93;;;12.80;43.60;;;;;;5044577;28;20028;-58
2022/04/05 12:24:24;;;;;;;7.85;6.13;;;12.90;43.70;;;;;;5050095;28;20029;-58
2022/04/05 12:26:51;;;;;;;7.57;5.97;;;12.90;43.50;;;;;;5048205;28;20036;-59
2022/04/05 12:29:17;;;;;;;6.72;5.85;;;12.90;43.50;;;;;;5044887;28;20032;-58
2022/04/05 12:31:42;;;;;;;8.50;6.25;;;13.00;43.30;;;;;;5045386;28;20492;-60
2022/04/05 12:34:13;;;;;;;7.18;6.15;;;13.00;42.80;;;;;;5053453;28;20082;-58
2022/04/05 12:36:56;;;;;;;8.77;6.40;;;13.00;42.80;;;;;;5046414;28;20444;-58
2022/04/05 12:39:26;;;;;;;6.00;5.30;;;12.90;43.00;;;;;;5050327;28;20369;-59
2022/04/05 12:41:54;;;;;;;6.10;5.50;;;12.90;43.00;;;;;;5049546;28;20073;-59
2022/04/05 12:44:22;;;;;;;8.40;6.28;;;12.90;43.50;;;;;;5042178;28;20040;-58
2022/04/05 12:46:53;;;;;;;6.45;5.50;;;12.80;42.90;;;;;;5040182;28;20028;-59
2022/04/05 12:49:31;;;;;;;6.28;5.45;;;12.80;42.90;;;;;;5039499;28;20032;-59
2022/04/05 12:52:13;;;;;;;7.00;5.63;;;12.70;43.20;;;;;;5037004;28;20036;-60